Time;durP1;ratioP1;P1;durP2;ratioP2;P2;SDS_P1;SDS_P2;PMS_P1;PMS_P2;Temp;Humidity;BMP_temperature;BMP_pressure;BME280_temperature;BME280_humidity;BME280_pressure;Samples;Min_cycle;Max_cycle;Signal;HPM_P1;HPM_P2
2021/12/19 00:01:24;;;;;;;10.40;5.70;;;;;;;5.01;57.97;99626.16;4989153;28;20515;-60
2021/12/19 00:09:12;;;;;;;8.10;4.87;;;;;;;5.06;56.80;99627.13;4992811;28;20041;-62
2021/12/19 00:11:37;;;;;;;7.87;4.60;;;;;;;5.06;56.51;99616.97;4988805;28;20112;-61
2021/12/19 00:14:03;;;;;;;8.03;4.80;;;;;;;5.01;56.29;99628.72;4994179;28;20030;-60
2021/12/19 00:16:29;;;;;;;9.83;6.20;;;;;;;5.01;56.25;99621.94;4993152;28;20038;-61
2021/12/19 00:18:55;;;;;;;7.33;4.30;;;;;;;4.99;55.65;99613.47;4988118;28;20072;-60
2021/12/19 00:21:22;;;;;;;5.90;4.37;;;;;;;5.05;55.42;99605.06;4994442;28;20038;-60
2021/12/19 00:23:50;;;;;;;8.47;4.63;;;;;;;5.17;54.10;99600.25;4995807;28;20084;-59
2021/12/19 00:26:16;;;;;;;8.20;5.00;;;;;;;5.19;53.71;99611.28;4989510;28;20065;-59
2021/12/19 00:28:43;;;;;;;6.73;4.73;;;;;;;5.19;53.86;99603.66;4992367;28;20577;-60
2021/12/19 00:31:09;;;;;;;5.53;3.80;;;;;;;5.15;53.86;99601.88;4994413;28;20080;-60
2021/12/19 00:33:36;;;;;;;7.33;5.00;;;;;;;5.15;54.51;99598.47;4992627;28;20064;-60
2021/12/19 00:36:03;;;;;;;5.97;4.20;;;;;;;5.01;55.05;99599.09;4992705;28;20133;-60
2021/12/19 00:38:28;;;;;;;7.07;4.23;;;;;;;4.92;55.86;99601.44;4993526;28;20030;-60
2021/12/19 00:40:54;;;;;;;7.03;4.90;;;;;;;4.83;57.66;99603.84;4991213;28;20430;-59
2021/12/19 00:46:04;;;;;;;8.57;5.30;;;;;;;4.61;59.61;99568.69;4989198;28;20279;-60
2021/12/19 00:48:30;;;;;;;7.83;4.50;;;;;;;4.62;59.00;99588.19;4990241;28;20480;-61
2021/12/19 00:50:55;;;;;;;8.40;5.10;;;;;;;4.64;58.75;99583.09;4996646;28;20060;-60
2021/12/19 00:53:20;;;;;;;8.37;5.00;;;;;;;4.71;58.58;99579.88;4992284;28;20031;-62
2021/12/19 00:55:46;;;;;;;7.83;5.40;;;;;;;4.73;57.68;99571.44;4990550;28;20034;-60
2021/12/19 00:58:11;;;;;;;8.90;4.43;;;;;;;4.71;57.31;99564.66;4992381;28;20401;-60
2021/12/19 01:00:37;;;;;;;7.77;4.90;;;;;;;4.73;56.98;99568.06;4995069;28;20501;-59
2021/12/19 01:03:03;;;;;;;6.87;4.23;;;;;;;4.84;56.91;99564.03;4995213;28;20034;-60
2021/12/19 01:05:33;;;;;;;4.87;3.53;;;;;;;4.69;56.56;99573.91;4995656;28;20034;-63
2021/12/19 01:07:59;;;;;;;5.80;4.30;;;;;;;4.81;54.68;99572.44;4994330;28;20026;-61
2021/12/19 01:10:24;;;;;;;6.63;4.70;;;;;;;5.04;52.86;99558.50;5000078;28;20042;-61
2021/12/19 01:12:50;;;;;;;5.40;4.63;;;;;;;5.11;52.92;99540.81;5001827;28;20029;-60
2021/12/19 01:15:16;;;;;;;5.50;3.53;;;;;;;5.11;52.82;99543.34;4992458;28;20034;-59
2021/12/19 01:17:42;;;;;;;8.30;3.70;;;;;;;5.03;52.84;99543.22;4995046;28;20045;-61
2021/12/19 01:20:15;;;;;;;5.87;4.07;;;;;;;5.00;53.30;99533.88;5003102;28;20025;-61
2021/12/19 01:22:41;;;;;;;6.03;4.37;;;;;;;4.97;54.05;99531.25;4997764;28;20117;-61
2021/12/19 01:25:08;;;;;;;6.80;3.70;;;;;;;4.94;54.02;99537.97;4994447;28;20037;-61
2021/12/19 01:27:33;;;;;;;6.13;3.90;;;;;;;4.90;53.89;99520.97;4992164;28;20033;-59
2021/12/19 01:29:58;;;;;;;8.20;5.27;;;;;;;4.95;54.16;99515.13;4994705;28;20034;-61
2021/12/19 01:32:24;;;;;;;7.27;5.33;;;;;;;4.98;53.84;99520.25;4994512;28;20404;-62
2021/12/19 01:34:49;;;;;;;6.73;3.90;;;;;;;4.97;53.71;99512.59;4994049;28;20416;-61
2021/12/19 01:37:15;;;;;;;6.17;4.33;;;;;;;4.92;54.17;99502.34;4991578;28;20065;-61
2021/12/19 01:39:41;;;;;;;5.47;3.83;;;;;;;4.90;54.88;99498.94;4999282;28;20552;-60
2021/12/19 01:42:09;;;;;;;6.90;4.30;;;;;;;4.87;55.31;99485.34;4998052;28;20452;-60
2021/12/19 01:44:35;;;;;;;8.77;5.40;;;;;;;4.89;55.56;99491.28;4993301;28;20112;-60
2021/12/19 01:47:01;;;;;;;8.47;5.30;;;;;;;4.77;56.33;99498.69;4992885;28;20554;-59
2021/12/19 01:49:26;;;;;;;5.97;4.27;;;;;;;4.74;56.54;99502.06;4995183;28;20506;-60
2021/12/19 01:51:52;;;;;;;9.70;4.73;;;;;;;4.77;56.97;99491.09;4997960;28;20499;-59
2021/12/19 01:54:17;;;;;;;9.20;5.70;;;;;;;4.64;57.84;99495.09;4996661;28;20076;-60
2021/12/19 01:56:43;;;;;;;8.33;4.73;;;;;;;4.60;58.49;99494.19;4992256;28;20042;-59
2021/12/19 01:59:10;;;;;;;6.83;4.37;;;;;;;4.65;58.07;99508.63;4998784;28;20444;-60
2021/12/19 02:01:42;;;;;;;11.20;6.03;;;;;;;4.72;58.01;99500.28;4998289;28;20046;-60
2021/12/19 02:04:09;;;;;;;4.90;3.67;;;;;;;4.76;58.01;99504.59;4992551;28;20035;-57
2021/12/19 02:06:34;;;;;;;7.20;4.47;;;;;;;4.71;57.78;99488.44;4990929;28;20034;-60
2021/12/19 02:09:05;;;;;;;8.13;4.60;;;;;;;4.70;57.50;99485.06;5000064;28;20026;-60
2021/12/19 02:11:33;;;;;;;7.30;4.70;;;;;;;4.74;56.34;99468.19;4987634;28;20549;-60
2021/12/19 02:13:59;;;;;;;6.83;4.07;;;;;;;4.83;56.11;99473.41;4992314;28;20520;-60
2021/12/19 02:16:24;;;;;;;6.77;4.57;;;;;;;4.86;55.65;99478.53;4996636;28;20141;-60
2021/12/19 02:18:50;;;;;;;7.30;4.80;;;;;;;4.84;55.33;99459.88;4998554;28;20029;-59
2021/12/19 02:21:16;;;;;;;8.57;5.50;;;;;;;4.80;55.45;99461.50;4992228;28;20038;-60
2021/12/19 02:23:41;;;;;;;7.90;4.80;;;;;;;4.79;55.95;99464.03;4989356;28;20104;-61
2021/12/19 02:26:07;;;;;;;6.17;4.47;;;;;;;4.75;56.65;99459.75;4989917;28;20179;-60
2021/12/19 02:28:32;;;;;;;7.90;4.50;;;;;;;4.66;57.24;99478.22;4996899;28;20029;-61
2021/12/19 02:30:58;;;;;;;8.27;4.97;;;;;;;4.64;57.47;99436.69;4991635;28;20044;-61
2021/12/19 02:33:27;;;;;;;7.83;5.30;;;;;;;4.62;58.26;99440.88;4991527;28;20084;-61
2021/12/19 02:36:19;;;;;;;7.77;5.30;;;;;;;4.61;58.89;99444.25;4996303;28;20030;-61
2021/12/19 02:49:42;;;;;;;8.37;4.80;;;;;;;4.32;63.71;99422.56;4994100;28;20080;-61
2021/12/19 02:52:19;;;;;;;8.35;4.70;;;;;;;4.26;63.79;99419.91;4992179;28;20448;-61
2021/12/19 02:54:45;;;;;;;9.00;5.30;;;;;;;4.26;64.43;99415.69;4994269;28;20042;-60
2021/12/19 02:57:11;;;;;;;6.77;5.00;;;;;;;4.32;64.64;99428.50;4994279;28;20057;-59
2021/12/19 02:59:37;;;;;;;9.80;5.40;;;;;;;4.25;65.51;99426.66;4995139;28;20400;-61
2021/12/19 03:02:03;;;;;;;10.63;5.90;;;;;;;4.25;66.73;99420.72;4974447;28;20407;-62
2021/12/19 03:04:29;;;;;;;11.43;6.90;;;;;;;4.27;68.15;99411.47;4972283;28;20100;-60
2021/12/19 03:06:54;;;;;;;12.47;6.07;;;;;;;4.10;71.43;99412.00;4975175;28;20483;-60
2021/12/19 03:09:43;;;;;;;11.63;6.07;;;;;;;4.06;73.33;99422.94;4969407;28;20034;-59
2021/12/19 03:20:19;;;;;;;10.97;6.27;;;;;;;3.91;78.35;99371.03;4970893;28;20137;-59
2021/12/19 03:22:45;;;;;;;12.63;7.30;;;;;;;3.94;78.79;99361.81;4978814;28;20039;-60
2021/12/19 03:25:10;;;;;;;9.73;5.50;;;;;;;3.88;80.38;99368.44;4981383;28;20026;-59
2021/12/19 03:27:35;;;;;;;7.97;4.73;;;;;;;3.89;81.41;99368.47;4975415;28;20149;-60
2021/12/19 03:30:03;;;;;;;10.40;5.80;;;;;;;3.86;84.60;99373.47;4972424;28;20089;-59
2021/12/19 03:32:29;;;;;;;10.20;5.83;;;;;;;3.87;88.17;99354.88;4976733;28;20077;-60
2021/12/19 03:34:54;;;;;;;10.13;5.50;;;;;;;3.89;92.04;99360.00;4977959;28;20094;-59
2021/12/19 03:37:20;;;;;;;8.47;4.93;;;;;;;3.91;95.19;99364.25;4982626;28;20035;-59
2021/12/19 03:40:08;;;;;;;10.27;5.00;;;;;;;3.94;97.62;99354.19;4974962;28;20577;-59
2021/12/19 03:42:36;;;;;;;8.70;4.80;;;;;;;3.90;100.00;99347.38;4976401;28;20623;-59
2021/12/19 03:45:03;;;;;;;7.90;4.70;;;;;;;3.91;100.00;99331.28;4978370;28;20089;-59
2021/12/19 03:47:29;;;;;;;7.27;4.73;;;;;;;3.89;100.00;99330.44;4975242;28;20038;-58
2021/12/19 03:49:54;;;;;;;8.40;4.10;;;;;;;3.90;100.00;99347.38;4974949;28;20053;-57
2021/12/19 03:52:20;;;;;;;8.10;4.47;;;;;;;3.91;100.00;99345.66;4977561;28;20043;-55
2021/12/19 03:54:45;;;;;;;9.53;5.00;;;;;;;3.83;100.00;99316.75;4976888;28;20515;-58
2021/12/19 03:57:11;;;;;;;6.17;4.00;;;;;;;3.87;100.00;99338.81;4974234;28;20141;-55
2021/12/19 03:59:37;;;;;;;7.83;4.83;;;;;;;3.83;100.00;99340.44;4974158;28;20121;-59
2021/12/19 04:02:03;;;;;;;9.80;4.67;;;;;;;3.85;100.00;99332.88;4992286;28;20047;-57
2021/12/19 04:04:34;;;;;;;7.40;4.70;;;;;;;3.84;100.00;99342.16;4996247;28;20042;-59
2021/12/19 04:07:00;;;;;;;9.73;4.40;;;;;;;3.85;100.00;99353.16;4994161;28;20044;-59
2021/12/19 04:09:25;;;;;;;6.90;3.87;;;;;;;3.85;100.00;99350.63;4993827;28;20026;-58
2021/12/19 04:11:54;;;;;;;7.20;4.10;;;;;;;3.91;100.00;99348.19;4996211;28;20472;-58
2021/12/19 04:14:20;;;;;;;6.37;3.23;;;;;;;3.96;100.00;99328.84;4994736;28;20101;-58
2021/12/19 04:16:45;;;;;;;6.37;4.30;;;;;;;3.96;100.00;99316.16;4992770;28;20092;-60
2021/12/19 04:19:11;;;;;;;6.17;4.23;;;;;;;3.94;100.00;99311.09;4994017;28;20066;-58
2021/12/19 04:21:36;;;;;;;5.83;3.80;;;;;;;3.99;100.00;99296.78;4996627;28;20030;-59
2021/12/19 04:24:02;;;;;;;5.20;4.13;;;;;;;4.02;100.00;99285.84;4994656;28;20373;-60
2021/12/19 04:26:27;;;;;;;6.73;4.13;;;;;;;4.05;100.00;99296.91;4995725;28;20111;-58
2021/12/19 04:28:53;;;;;;;5.13;3.57;;;;;;;4.02;100.00;99296.84;5003010;28;20037;-61
2021/12/19 04:31:18;;;;;;;5.27;2.93;;;;;;;4.00;100.00;99298.50;4995575;28;20462;-57
2021/12/19 04:33:44;;;;;;;5.43;3.30;;;;;;;4.01;100.00;99284.97;4994151;28;20092;-55
2021/12/19 04:36:12;;;;;;;6.50;3.73;;;;;;;4.10;100.00;99299.50;4991358;28;20042;-58
2021/12/19 04:54:56;;;;;;;4.90;3.03;;;;;;;4.17;100.00;99292.84;4958107;28;20043;-58
2021/12/19 05:00:31;;;;;;;4.53;2.50;;;;;;;4.14;100.00;99293.66;4939002;28;20086;-56
2021/12/19 05:03:03;;;;;;;2.67;2.00;;;;;;;4.19;100.00;99293.75;4962363;28;20059;-58
2021/12/19 05:05:57;;;;;;;3.43;2.43;;;;;;;4.12;100.00;99290.22;4960108;28;20043;-57
2021/12/19 05:14:10;;;;;;;3.97;2.90;;;;;;;4.08;100.00;99270.72;4959840;28;20891;-58
2021/12/19 05:16:31;;;;;;;3.67;2.40;;;;;;;3.98;100.00;99248.56;4963748;28;20110;-59
2021/12/19 05:19:04;;;;;;;4.00;2.40;;;;;;;4.05;100.00;99261.38;4959166;28;20047;-59
2021/12/19 05:21:30;;;;;;;4.57;2.30;;;;;;;4.01;100.00;99244.41;4952552;28;20486;-59
2021/12/19 05:26:24;;;;;;;3.23;2.20;;;;;;;4.05;100.00;99230.94;4958573;28;20145;-59
2021/12/19 05:28:52;;;;;;;2.13;1.80;;;;;;;4.12;100.00;99254.72;4957443;28;20119;-59
2021/12/19 05:31:21;;;;;;;2.87;2.20;;;;;;;4.18;100.00;99242.13;4952703;28;20051;-57
2021/12/19 05:33:47;;;;;;;2.80;1.63;;;;;;;4.27;100.00;99228.75;4952356;28;20106;-55
2021/12/19 05:46:43;;;;;;;3.37;2.00;;;;;;;4.27;100.00;99185.59;4960568;28;20733;-59
2021/12/19 05:49:09;;;;;;;3.47;2.60;;;;;;;4.23;100.00;99191.47;4958601;28;20419;-58
2021/12/19 05:51:36;;;;;;;4.67;2.67;;;;;;;4.25;100.00;99183.03;4955068;28;20031;-55
2021/12/19 05:54:02;;;;;;;4.77;3.27;;;;;;;4.35;100.00;99167.13;4961877;28;20027;-57
2021/12/19 05:56:28;;;;;;;4.17;2.60;;;;;;;4.32;100.00;99169.63;4959344;28;20544;-57
2021/12/19 05:58:53;;;;;;;2.77;2.13;;;;;;;4.32;100.00;99172.16;4958696;28;20035;-55
2021/12/19 06:01:18;;;;;;;3.40;2.57;;;;;;;4.30;100.00;99165.34;4976695;28;20077;-57
2021/12/19 06:03:44;;;;;;;3.83;2.33;;;;;;;4.33;100.00;99155.25;4997590;28;20073;-57
2021/12/19 06:06:10;;;;;;;3.23;2.13;;;;;;;4.35;100.00;99156.09;4990242;28;20042;-56
2021/12/19 06:08:35;;;;;;;3.03;2.27;;;;;;;4.33;100.00;99140.84;4997197;28;20399;-58
2021/12/19 06:11:01;;;;;;;3.47;2.53;;;;;;;4.40;100.00;99141.81;4995369;28;20042;-55
2021/12/19 06:13:27;;;;;;;4.23;2.47;;;;;;;4.40;100.00;99146.88;4996169;28;20064;-60
2021/12/19 06:15:55;;;;;;;3.17;2.30;;;;;;;4.54;100.00;99137.78;4997338;28;20481;-55
2021/12/19 06:18:20;;;;;;;2.77;2.20;;;;;;;4.53;100.00;99123.34;4999024;28;20034;-58
2021/12/19 06:20:46;;;;;;;5.43;2.80;;;;;;;4.54;100.00;99115.75;4995517;28;20031;-58
2021/12/19 06:23:11;;;;;;;3.00;2.20;;;;;;;4.58;100.00;99109.88;5000509;28;20052;-58
2021/12/19 06:25:45;;;;;;;3.47;2.33;;;;;;;4.58;100.00;99126.81;4998113;28;20068;-54
2021/12/19 06:28:12;;;;;;;3.07;2.10;;;;;;;4.65;100.00;99087.97;4996765;28;20411;-58
2021/12/19 06:30:37;;;;;;;4.23;2.37;;;;;;;4.71;100.00;99077.03;4993650;28;20040;-58
2021/12/19 06:33:03;;;;;;;3.60;2.20;;;;;;;4.71;100.00;99093.09;4997160;28;20471;-59
2021/12/19 06:35:29;;;;;;;3.93;2.30;;;;;;;4.72;100.00;99084.66;5001667;28;20022;-58
2021/12/19 06:37:55;;;;;;;3.53;2.10;;;;;;;4.71;100.00;99077.03;4990226;28;20116;-58
2021/12/19 06:40:21;;;;;;;3.40;1.80;;;;;;;4.77;100.00;99062.69;4991080;28;20495;-56
2021/12/19 06:42:47;;;;;;;3.70;2.87;;;;;;;4.77;100.00;99070.31;4999937;28;20045;-57
2021/12/19 06:45:13;;;;;;;3.07;2.20;;;;;;;4.81;100.00;99066.97;4992598;28;20030;-57
2021/12/19 06:47:39;;;;;;;2.60;2.17;;;;;;;4.94;100.00;99063.72;4989926;28;20042;-57
2021/12/19 06:50:06;;;;;;;2.30;1.70;;;;;;;4.96;100.00;99064.63;4992735;28;20030;-58
2021/12/19 06:52:33;;;;;;;4.17;2.40;;;;;;;4.97;100.00;99057.81;4994641;28;20040;-57
2021/12/19 06:54:58;;;;;;;3.10;2.30;;;;;;;4.99;100.00;99046.00;4992318;28;20026;-57
2021/12/19 06:57:24;;;;;;;2.70;2.20;;;;;;;5.05;100.00;99046.88;4990026;28;20030;-58
2021/12/19 06:59:49;;;;;;;2.63;2.10;;;;;;;5.08;100.00;99038.47;4994071;28;20045;-56
2021/12/19 07:02:16;;;;;;;3.53;2.40;;;;;;;5.11;100.00;99030.00;4995711;28;20125;-59
2021/12/19 07:04:43;;;;;;;3.27;2.00;;;;;;;5.17;100.00;99036.00;4992627;28;20029;-57
2021/12/19 07:07:09;;;;;;;2.40;2.10;;;;;;;5.31;100.00;99034.41;4990478;28;20061;-54
2021/12/19 07:09:34;;;;;;;2.83;2.10;;;;;;;5.36;100.00;99034.47;4994500;28;20476;-58
2021/12/19 07:11:59;;;;;;;3.20;1.90;;;;;;;5.37;100.00;99020.91;4994427;28;20061;-58
2021/12/19 07:14:25;;;;;;;2.80;1.80;;;;;;;5.51;100.00;99009.16;4990820;28;20100;-57
2021/12/19 07:16:50;;;;;;;2.43;1.83;;;;;;;5.57;100.00;99026.13;4991707;28;20031;-58
2021/12/19 07:19:16;;;;;;;3.03;1.97;;;;;;;5.54;100.00;99029.53;4994637;28;20042;-60
2021/12/19 07:21:41;;;;;;;2.37;1.70;;;;;;;5.60;100.00;99029.53;4992877;28;20028;-56
2021/12/19 07:24:07;;;;;;;1.77;1.67;;;;;;;5.60;100.00;99033.81;4983439;28;20033;-58
2021/12/19 07:26:32;;;;;;;1.60;1.50;;;;;;;5.65;100.00;99024.50;4994146;28;20037;-57
2021/12/19 07:28:58;;;;;;;2.43;1.50;;;;;;;5.67;100.00;99030.47;4993570;28;20033;-57
2021/12/19 07:31:24;;;;;;;2.30;1.77;;;;;;;5.76;100.00;99033.06;4992088;28;20030;-59
2021/12/19 07:33:50;;;;;;;2.90;1.93;;;;;;;5.89;100.00;99025.56;4994979;28;20029;-58
2021/12/19 07:36:18;;;;;;;2.33;1.60;;;;;;;5.87;100.00;99021.28;4993493;28;20029;-58
2021/12/19 07:41:39;;;;;;;3.43;1.90;;;;;;;5.97;100.00;99020.50;4982474;28;20125;-56
2021/12/19 07:44:05;;;;;;;1.87;1.60;;;;;;;6.03;100.00;99007.81;4988455;28;20156;-55
2021/12/19 07:46:30;;;;;;;3.03;1.90;;;;;;;6.10;100.00;99007.00;4992050;28;20110;-58
2021/12/19 07:48:55;;;;;;;2.33;1.67;;;;;;;6.20;99.14;99008.72;4998624;28;20030;-58
2021/12/19 07:51:21;;;;;;;1.93;1.70;;;;;;;6.25;97.79;99017.25;4991079;28;20049;-58
2021/12/19 07:53:46;;;;;;;3.73;1.77;;;;;;;6.35;97.03;99013.91;4990616;28;20090;-57
2021/12/19 07:56:12;;;;;;;2.43;1.70;;;;;;;6.31;96.63;99012.19;4991488;28;20112;-56
2021/12/19 07:58:37;;;;;;;2.20;1.90;;;;;;;6.49;95.40;99005.47;4988381;28;20412;-58
2021/12/19 08:01:03;;;;;;;1.93;1.73;;;;;;;6.53;93.94;99007.19;4990149;28;20053;-60
2021/12/19 08:03:28;;;;;;;2.10;1.73;;;;;;;6.61;92.09;98995.31;4992966;28;20435;-56
2021/12/19 08:05:54;;;;;;;2.80;2.27;;;;;;;6.64;91.48;99000.41;4993875;28;20060;-57
2021/12/19 08:08:25;;;;;;;2.37;1.80;;;;;;;6.74;90.44;99002.13;4995828;28;20040;-58
2021/12/19 08:13:35;;;;;;;3.40;2.70;;;;;;;6.85;88.27;99010.66;4990814;28;20101;-56
2021/12/19 08:16:01;;;;;;;2.17;1.93;;;;;;;6.85;88.75;99008.09;4997920;28;20545;-55
2021/12/19 08:18:26;;;;;;;2.70;1.90;;;;;;;6.87;88.67;99003.88;4999449;28;20108;-57
2021/12/19 08:20:51;;;;;;;4.43;2.20;;;;;;;6.88;89.32;99013.19;4992617;28;20038;-55
2021/12/19 08:23:17;;;;;;;2.97;2.20;;;;;;;6.83;88.83;99020.00;4991166;28;20037;-58
2021/12/19 08:25:42;;;;;;;3.97;2.23;;;;;;;6.87;88.57;99008.97;4992467;28;20030;-58
2021/12/19 08:28:08;;;;;;;3.93;3.30;;;;;;;6.89;87.99;99013.19;4992726;28;20137;-57
2021/12/19 08:30:33;;;;;;;3.80;2.03;;;;;;;6.97;86.74;99004.72;4988706;28;20137;-57
2021/12/19 08:32:59;;;;;;;3.40;2.47;;;;;;;7.02;86.88;99001.31;4987460;28;20107;-59
2021/12/19 08:35:26;;;;;;;2.70;2.13;;;;;;;7.00;86.61;98995.34;4993654;28;20476;-58
2021/12/19 08:37:52;;;;;;;2.63;2.23;;;;;;;7.08;85.96;98993.69;4999068;28;20030;-59
2021/12/19 08:40:17;;;;;;;2.60;1.80;;;;;;;7.06;85.71;98997.94;4989270;28;20039;-55
2021/12/19 08:42:44;;;;;;;2.63;2.20;;;;;;;7.02;85.41;98983.47;4989020;28;20022;-55
2021/12/19 08:45:10;;;;;;;2.47;2.27;;;;;;;7.18;84.04;98967.34;4993212;28;20127;-58
2021/12/19 08:47:36;;;;;;;2.60;2.40;;;;;;;7.24;83.47;98959.69;4993450;28;20028;-55
2021/12/19 08:50:03;;;;;;;3.70;2.43;;;;;;;7.36;82.34;98938.44;4991149;28;20381;-56
2021/12/19 08:52:29;;;;;;;3.90;2.50;;;;;;;7.50;80.73;98918.00;4995330;28;20034;-54
2021/12/19 08:54:54;;;;;;;3.00;2.70;;;;;;;7.49;79.77;98929.06;4993907;28;20030;-58
2021/12/19 08:57:20;;;;;;;2.20;2.07;;;;;;;7.56;78.78;98935.84;4991328;28;20057;-55
2021/12/19 08:59:47;;;;;;;2.10;1.90;;;;;;;7.58;77.69;98917.13;4994969;28;20077;-57
2021/12/19 09:02:12;;;;;;;3.57;2.00;;;;;;;7.75;76.26;98911.97;4982121;28;20082;-53
2021/12/19 09:04:38;;;;;;;2.90;2.17;;;;;;;7.76;75.12;98903.47;4999307;28;20100;-58
2021/12/19 09:07:03;;;;;;;3.33;2.37;;;;;;;7.72;76.52;98906.91;4994127;28;20084;-58
2021/12/19 09:09:29;;;;;;;2.83;2.37;;;;;;;7.67;76.86;98909.47;4991485;28;20091;-58
2021/12/19 09:11:54;;;;;;;3.07;2.30;;;;;;;7.66;76.38;98904.34;4988703;28;20058;-57
2021/12/19 09:14:20;;;;;;;3.10;2.20;;;;;;;7.67;75.81;98906.91;4976956;28;20030;-58
2021/12/19 09:16:45;;;;;;;2.33;1.70;;;;;;;7.74;74.78;98900.06;4988311;28;20676;-57
2021/12/19 09:19:12;;;;;;;3.47;2.23;;;;;;;7.82;73.53;98896.63;4998793;28;20030;-58
2021/12/19 09:21:38;;;;;;;2.77;2.00;;;;;;;7.83;74.09;98887.28;4997165;28;20029;-56
2021/12/19 09:24:04;;;;;;;3.70;2.07;;;;;;;7.75;73.99;98900.06;4996095;28;20521;-57
2021/12/19 09:26:29;;;;;;;3.17;2.10;;;;;;;7.84;72.72;98901.75;5004051;28;20029;-58
2021/12/19 09:28:55;;;;;;;3.03;2.43;;;;;;;7.93;70.73;98904.25;5002426;28;20439;-56
2021/12/19 09:31:21;;;;;;;3.27;2.83;;;;;;;8.01;70.35;98915.28;5000139;28;20038;-58
2021/12/19 09:33:47;;;;;;;2.60;2.17;;;;;;;8.02;68.70;98898.28;4997977;28;20078;-54
2021/12/19 09:36:12;;;;;;;2.67;1.90;;;;;;;8.07;67.48;98920.34;4993723;28;20027;-55
2021/12/19 09:38:38;;;;;;;3.90;2.73;;;;;;;8.11;67.22;98905.84;4993737;28;20038;-57
2021/12/19 09:41:13;;;;;;;6.43;3.07;;;;;;;8.12;66.06;98907.56;4998038;28;20531;-57
2021/12/19 09:43:41;;;;;;;2.90;2.60;;;;;;;8.14;65.37;98906.72;4992788;28;20860;-57
2021/12/19 09:46:16;;;;;;;5.03;2.50;;;;;;;8.13;65.72;98916.94;4992291;28;20159;-57
2021/12/19 09:48:44;;;;;;;3.40;2.72;;;;;;;8.13;65.23;98905.00;5001698;28;20079;-59
2021/12/19 09:51:11;;;;;;;4.07;3.27;;;;;;;8.22;63.28;98904.97;4993357;28;20534;-58
2021/12/19 09:53:38;;;;;;;3.17;2.50;;;;;;;8.40;62.29;98903.22;4990123;28;20132;-58
2021/12/19 09:56:04;;;;;;;5.00;2.70;;;;;;;8.44;62.10;98905.75;4991818;28;20426;-55
2021/12/19 09:58:32;;;;;;;3.87;2.50;;;;;;;8.47;61.44;98905.72;4993656;28;20083;-55
2021/12/19 10:01:00;;;;;;;3.33;2.37;;;;;;;8.64;60.46;98909.00;4990539;28;20645;-57
2021/12/19 10:03:25;;;;;;;3.20;2.47;;;;;;;8.55;60.79;98903.94;4989551;28;20034;-57
2021/12/19 10:06:14;;;;;;;4.37;2.87;;;;;;;8.64;60.33;98903.88;4991074;28;20449;-56
2021/12/19 10:08:40;;;;;;;2.97;2.00;;;;;;;8.72;59.58;98885.94;4972496;28;20026;-55
2021/12/19 10:11:13;;;;;;;2.17;2.03;;;;;;;8.85;59.65;98890.09;4989775;28;20589;-59
2021/12/19 10:13:39;;;;;;;3.80;2.63;;;;;;;8.86;58.88;98876.47;4982088;28;20388;-57
2021/12/19 10:16:34;;;;;;;4.43;2.77;;;;;;;8.89;59.14;98879.00;4993891;28;20030;-57
2021/12/19 10:19:00;;;;;;;4.40;3.57;;;;;;;8.83;59.09;98878.16;4982356;28;20031;-57
2021/12/19 10:21:30;;;;;;;2.20;1.87;;;;;;;8.73;59.68;98871.47;4998286;28;20057;-56
2021/12/19 10:24:00;;;;;;;2.67;2.17;;;;;;;8.60;60.27;98870.69;4993901;28;20037;-53
2021/12/19 10:26:38;;;;;;;3.33;2.40;;;;;;;8.68;60.44;98853.59;4989998;28;20084;-57
2021/12/19 10:29:04;;;;;;;3.43;2.03;;;;;;;8.74;60.81;98853.56;4986307;28;20077;-56
2021/12/19 10:31:29;;;;;;;3.33;2.50;;;;;;;8.94;60.33;98848.28;4994629;28;21588;-57
2021/12/19 10:33:55;;;;;;;3.47;2.60;;;;;;;8.87;60.83;98849.19;4991186;28;20092;-57
2021/12/19 10:36:21;;;;;;;3.60;2.33;;;;;;;8.84;60.33;98844.09;4994150;28;20081;-56
2021/12/19 10:38:56;;;;;;;5.97;2.53;;;;;;;8.93;60.67;98849.13;4998214;28;20516;-56
2021/12/19 10:41:33;;;;;;;4.10;2.50;;;;;;;8.93;61.50;98849.97;4993713;28;20080;-57
2021/12/19 10:44:06;;;;;;;2.90;2.20;;;;;;;8.80;60.53;98855.19;4991330;28;20046;-57
2021/12/19 10:46:38;;;;;;;4.67;2.90;;;;;;;8.95;61.03;98838.03;4996652;28;20026;-59
2021/12/19 10:49:04;;;;;;;4.10;2.63;;;;;;;8.91;60.99;98836.34;4999190;28;20229;-59
2021/12/19 10:51:36;;;;;;;4.67;2.50;;;;;;;9.12;59.49;98846.38;4999702;28;20059;-58
2021/12/19 10:54:04;;;;;;;3.33;3.03;;;;;;;9.34;59.28;98847.00;4993589;28;20073;-58
2021/12/19 10:56:32;;;;;;;3.77;2.80;;;;;;;9.36;58.68;98839.31;4991139;28;20026;-59
2021/12/19 10:59:00;;;;;;;5.00;2.57;;;;;;;9.34;58.28;98846.16;4994717;28;20080;-59
2021/12/19 11:01:52;;;;;;;4.03;3.00;;;;;;;9.00;59.82;98848.19;4991649;28;20469;-58
2021/12/19 11:04:20;;;;;;;3.63;2.87;;;;;;;9.08;61.39;98828.53;4987583;28;20114;-58
2021/12/19 11:06:54;;;;;;;8.10;4.13;;;;;;;8.89;62.35;98806.56;4990837;28;20852;-58
2021/12/19 11:09:25;;;;;;;5.03;2.83;;;;;;;8.82;62.52;98803.22;4996884;28;20392;-58
2021/12/19 11:11:56;;;;;;;5.40;3.17;;;;;;;8.71;62.45;98802.44;4993918;28;20499;-58
2021/12/19 11:14:25;;;;;;;4.60;3.30;;;;;;;8.54;64.30;98819.63;4990503;28;20030;-59
2021/12/19 11:16:57;;;;;;;4.53;2.50;;;;;;;8.58;64.90;98799.16;4994027;28;20034;-58
2021/12/19 11:19:24;;;;;;;4.57;3.43;;;;;;;8.70;65.06;98816.06;4996141;28;20030;-58
2021/12/19 11:21:51;;;;;;;5.37;3.30;;;;;;;8.60;65.29;98820.44;4994176;28;20688;-59
2021/12/19 11:24:21;;;;;;;5.77;3.30;;;;;;;8.60;65.88;98807.66;4990056;28;20030;-59
2021/12/19 11:26:50;;;;;;;4.33;2.63;;;;;;;8.58;65.81;98808.53;4998048;28;20057;-56
2021/12/19 11:29:16;;;;;;;4.67;2.80;;;;;;;8.60;65.75;98812.78;4991774;28;20129;-61
2021/12/19 11:31:50;;;;;;;5.83;3.60;;;;;;;8.42;66.51;98833.34;4988287;28;20034;-61
2021/12/19 11:34:21;;;;;;;4.33;3.80;;;;;;;8.27;68.20;98801.06;4992526;28;20089;-58
2021/12/19 11:36:59;;;;;;;3.67;2.50;;;;;;;8.31;67.71;98803.63;4992162;28;20033;-59
2021/12/19 11:39:31;;;;;;;5.17;2.93;;;;;;;8.36;67.67;98800.16;4987825;28;20517;-58
2021/12/19 11:42:09;;;;;;;5.33;2.90;;;;;;;8.39;68.31;98799.31;4996866;28;20594;-56
2021/12/19 11:45:10;;;;;;;5.47;2.73;;;;;;;8.32;68.40;98795.13;4993578;28;20045;-56
2021/12/19 11:47:48;;;;;;;4.30;2.33;;;;;;;8.25;68.62;98792.56;4987946;28;20034;-58
2021/12/19 11:50:27;;;;;;;4.77;3.23;;;;;;;8.21;70.08;98800.25;4992113;28;20184;-59
2021/12/19 11:53:12;;;;;;;4.93;3.10;;;;;;;8.10;69.32;98797.78;4992349;28;20384;-58
2021/12/19 11:55:41;;;;;;;6.38;3.85;;;;;;;8.01;69.44;98794.44;4977938;28;20103;-55
2021/12/19 11:58:09;;;;;;;4.83;2.97;;;;;;;7.95;71.06;98782.56;4990220;28;20038;-57
2021/12/19 12:00:40;;;;;;;3.73;2.77;;;;;;;7.86;70.84;98776.66;4993821;28;20128;-56
2021/12/19 12:03:11;;;;;;;6.67;3.73;;;;;;;7.76;72.75;98825.22;4991923;28;20048;-58
2021/12/19 12:05:51;;;;;;;3.87;2.60;;;;;;;7.68;73.98;98800.59;4989697;28;20034;-57
2021/12/19 12:08:25;;;;;;;4.93;2.53;;;;;;;7.62;73.83;98792.94;4990103;28;20364;-58
2021/12/19 12:10:57;;;;;;;3.87;2.70;;;;;;;7.50;73.86;98827.03;4993492;28;20393;-59
2021/12/19 12:13:32;;;;;;;3.37;2.33;;;;;;;7.43;75.75;98810.03;4990720;28;20029;-58
2021/12/19 12:16:26;;;;;;;3.93;2.40;;;;;;;7.42;75.28;98812.59;4988677;28;20121;-60
2021/12/19 12:19:00;;;;;;;3.87;2.73;;;;;;;7.40;76.43;98827.91;4980116;28;20026;-61
2021/12/19 12:21:30;;;;;;;3.03;2.70;;;;;;;7.36;77.31;98800.72;4995591;28;20144;-61
2021/12/19 12:23:58;;;;;;;3.40;2.67;;;;;;;7.33;78.22;98809.22;4990609;28;20076;-62
2021/12/19 12:26:30;;;;;;;4.60;2.70;;;;;;;7.31;79.85;98833.88;4991740;28;20511;-58
2021/12/19 12:28:56;;;;;;;4.13;2.63;;;;;;;7.26;79.55;98799.03;4992610;28;20598;-59
2021/12/19 12:31:26;;;;;;;5.03;3.40;;;;;;;7.25;80.20;98844.09;4991689;28;20030;-58
2021/12/19 12:33:53;;;;;;;3.53;2.30;;;;;;;7.44;79.90;98793.03;4990487;28;20045;-57
2021/12/19 12:36:19;;;;;;;4.67;2.73;;;;;;;7.34;80.60;98782.03;4990685;28;20100;-54
2021/12/19 12:38:49;;;;;;;4.73;3.20;;;;;;;7.35;80.23;98779.44;4993309;28;20029;-56
2021/12/19 12:41:27;;;;;;;3.10;2.43;;;;;;;7.22;81.15;98780.34;4993885;28;20103;-55
2021/12/19 12:43:55;;;;;;;3.73;2.77;;;;;;;7.33;79.37;98763.31;4993019;28;20026;-56
2021/12/19 12:46:23;;;;;;;5.23;2.67;;;;;;;7.26;79.29;98768.44;4993393;28;20031;-58
2021/12/19 12:49:00;;;;;;;3.77;2.70;;;;;;;7.10;81.01;98752.34;4992143;28;20029;-58
2021/12/19 12:51:38;;;;;;;4.33;2.90;;;;;;;6.91;83.23;98757.50;4993738;28;20040;-59
2021/12/19 12:54:09;;;;;;;4.33;2.70;;;;;;;6.75;85.04;98747.34;4993978;28;20026;-53